createdAt,value
2023-05-22T00:02:01.088Z,103863.31
2023-05-22T00:04:30.965Z,103847.06
2023-05-22T00:06:58.942Z,103673.84
2023-05-22T00:09:27.309Z,103439.47
2023-05-22T00:11:55.364Z,103226.38
2023-05-22T00:14:23.134Z,103201.72
2023-05-22T00:16:51.186Z,103132.16
2023-05-22T00:19:23.142Z,103104.41
2023-05-22T00:21:54.278Z,103119.34
2023-05-22T00:24:22.098Z,103123.31
2023-05-22T00:26:49.880Z,103128.69
2023-05-22T00:29:19.592Z,103143.31
2023-05-22T00:31:47.542Z,103191.78
2023-05-22T00:34:15.701Z,103235.88
2023-05-22T00:36:45.610Z,103284.13
2023-05-22T00:39:15.023Z,103277.53
2023-05-22T00:41:42.767Z,103220.22
2023-05-22T00:44:11.770Z,103203.38
2023-05-22T00:46:39.769Z,103195.09
2023-05-22T00:49:07.541Z,103244.41
2023-05-22T00:51:35.456Z,103303.31
2023-05-22T00:54:03.316Z,103364.00
2023-05-22T00:56:32.888Z,103464.41
2023-05-22T00:59:00.862Z,103548.19
2023-05-22T01:01:33.426Z,103634.72
2023-05-22T01:04:05.178Z,103747.69
2023-05-22T01:06:33.603Z,103825.13
2023-05-22T01:09:01.385Z,104013.47
2023-05-22T01:11:38.611Z,104310.97
2023-05-22T01:14:12.346Z,104702.34
2023-05-22T01:16:48.483Z,105064.59
2023-05-22T01:19:37.464Z,105268.47
2023-05-22T01:22:16.429Z,105552.41
2023-05-22T01:25:00.509Z,105777.28
2023-05-22T01:28:10.143Z,105938.44
2023-05-22T01:30:49.750Z,106123.13
2023-05-22T01:33:19.405Z,106347.91
2023-05-22T01:35:54.185Z,106367.03
2023-05-22T01:38:22.844Z,106422.56
2023-05-22T01:40:51.088Z,106399.81
2023-05-22T01:43:18.915Z,106406.16
2023-05-22T01:45:48.444Z,106420.72
2023-05-22T01:48:16.277Z,106460.75
2023-05-22T01:50:45.388Z,106440.75
2023-05-22T01:53:19.329Z,106397.97
2023-05-22T01:55:55.744Z,106407.09
2023-05-22T01:58:30.295Z,106445.31
2023-05-22T02:01:03.483Z,106434.38
2023-05-22T02:03:33.259Z,106426.16
2023-05-22T02:06:04.350Z,106462.53
2023-05-22T02:08:32.545Z,106481.66
2023-05-22T02:11:02.985Z,106417.94
2023-05-22T02:13:31.707Z,106427.97
2023-05-22T02:16:04.092Z,106391.56
2023-05-22T02:18:32.322Z,106405.22
2023-05-22T02:21:02.747Z,106379.75
2023-05-22T02:23:33.244Z,106218.75
2023-05-22T02:26:01.244Z,105956.78
2023-05-22T02:28:29.027Z,105738.44
2023-05-22T02:30:56.905Z,105406.41
2023-05-22T02:33:27.102Z,105028.91
2023-05-22T02:35:55.350Z,104844.16
2023-05-22T02:38:24.954Z,104690.56
2023-05-22T02:40:53.243Z,104551.75
2023-05-22T02:43:22.457Z,104426.41
2023-05-22T02:45:51.013Z,104382.06
2023-05-22T02:48:18.849Z,104377.56
2023-05-22T02:50:49.007Z,104419.28
2023-05-22T02:53:17.200Z,104454.84
2023-05-22T02:55:45.905Z,104470.25
2023-05-22T02:58:14.560Z,104519.38
2023-05-22T03:00:43.233Z,104594.88
2023-05-22T03:03:11.917Z,104698.56
2023-05-22T03:05:40.125Z,104815.00
2023-05-22T03:08:11.056Z,104974.13
2023-05-22T03:10:40.141Z,105116.81
2023-05-22T03:13:08.327Z,105244.09
2023-05-22T03:15:36.118Z,105324.22
2023-05-22T03:18:11.838Z,105377.91
2023-05-22T03:20:41.833Z,105458.88
2023-05-22T03:23:12.862Z,105546.06
2023-05-22T03:25:40.760Z,105626.06
2023-05-22T03:28:08.926Z,105708.78
2023-05-22T03:30:42.016Z,105806.09
2023-05-22T03:33:15.982Z,105859.72
2023-05-22T03:35:44.944Z,105955.16
2023-05-22T03:38:14.361Z,106049.66
2023-05-22T03:40:42.276Z,106146.94
2023-05-22T03:43:11.009Z,106188.72
2023-05-22T03:45:39.791Z,106211.47
2023-05-22T03:48:07.762Z,106248.72
2023-05-22T03:50:35.839Z,106330.53
2023-05-22T03:53:03.656Z,106342.34
2023-05-22T03:55:33.650Z,106319.63
2023-05-22T03:58:01.389Z,106358.69
2023-05-22T04:00:29.232Z,106368.69
2023-05-22T04:02:58.740Z,106407.75
2023-05-22T04:05:26.827Z,106438.66
2023-05-22T04:07:54.691Z,106485.03
2023-05-22T04:10:23.690Z,106483.19
2023-05-22T04:12:53.208Z,106466.81
2023-05-22T04:15:21.872Z,106504.06
2023-05-22T04:17:50.089Z,106540.44
2023-05-22T04:20:18.297Z,106534.94
2023-05-22T04:22:46.492Z,106534.94
2023-05-22T04:25:14.626Z,106587.72
2023-05-22T04:27:42.426Z,106555.00
2023-05-22T04:30:12.140Z,106569.53
2023-05-22T04:32:40.861Z,106601.38
2023-05-22T04:35:10.088Z,106585.88
2023-05-22T04:37:37.903Z,106604.03
2023-05-22T04:40:07.730Z,106597.63
2023-05-22T04:42:35.641Z,106598.53
2023-05-22T04:45:04.673Z,106640.41
2023-05-22T04:47:34.048Z,106663.13
2023-05-22T04:50:07.931Z,106643.13
2023-05-22T04:52:36.350Z,106636.78
2023-05-22T04:55:05.953Z,106670.47
2023-05-22T04:57:34.095Z,106642.25
2023-05-22T05:00:04.827Z,106668.63
2023-05-22T05:02:36.117Z,106672.28
2023-05-22T05:05:04.022Z,106663.19
2023-05-22T05:07:31.879Z,106660.44
2023-05-22T05:09:59.707Z,106685.00
2023-05-22T05:12:28.231Z,106705.88
2023-05-22T05:14:56.295Z,106702.22
2023-05-22T05:17:24.111Z,106751.38
2023-05-22T05:19:53.594Z,106734.94
2023-05-22T05:22:21.398Z,106785.03
2023-05-22T05:24:49.164Z,106811.38
2023-05-22T05:27:17.963Z,106812.28
2023-05-22T05:29:49.110Z,106811.41
2023-05-22T05:32:23.598Z,106798.59
2023-05-22T05:34:57.058Z,106824.13
2023-05-22T05:37:45.615Z,106844.16
2023-05-22T05:40:14.951Z,106832.31
2023-05-22T05:42:47.460Z,106833.28
2023-05-22T05:45:16.632Z,106830.56
2023-05-22T05:47:44.488Z,106846.94
2023-05-22T05:50:15.535Z,106856.97
2023-05-22T05:52:44.035Z,106901.59
2023-05-22T05:55:16.778Z,106905.28
2023-05-22T05:57:45.023Z,106923.53
2023-05-22T06:00:20.029Z,106942.69
2023-05-22T06:02:50.725Z,106956.34
2023-05-22T06:05:46.925Z,106959.13
2023-05-22T06:08:24.426Z,106970.06
2023-05-22T06:10:52.590Z,106951.88
2023-05-22T06:13:36.984Z,106971.03
2023-05-22T06:16:06.732Z,106987.41
2023-05-22T06:18:37.126Z,107028.47
2023-05-22T06:21:08.055Z,107040.38
2023-05-22T06:23:35.937Z,107099.69
2023-05-22T06:26:05.091Z,107101.53
2023-05-22T06:28:33.335Z,107128.03
2023-05-22T06:31:02.799Z,107137.22
2023-05-22T06:33:32.064Z,107097.19
2023-05-22T06:36:00.010Z,106902.41
2023-05-22T06:38:29.336Z,106647.50
2023-05-22T06:40:57.202Z,106369.66
2023-05-22T06:43:27.708Z,105838.53
2023-05-22T06:46:00.794Z,105429.56
2023-05-22T06:48:47.376Z,104940.16
2023-05-22T06:51:21.866Z,104281.44
2023-05-22T06:53:54.475Z,104089.25
2023-05-22T06:56:26.002Z,104118.00
2023-05-22T06:58:57.672Z,103958.25
2023-05-22T07:01:38.362Z,103798.03
2023-05-22T07:04:13.186Z,103620.25
2023-05-22T07:06:58.701Z,103424.94
2023-05-22T07:09:28.072Z,103304.78
2023-05-22T07:11:55.913Z,103141.03
2023-05-22T07:14:24.087Z,102999.94
2023-05-22T07:16:52.055Z,102910.13
2023-05-22T07:19:27.298Z,102799.03
2023-05-22T07:22:00.097Z,102658.63
2023-05-22T07:24:29.904Z,102583.69
2023-05-22T07:26:57.893Z,102550.22
2023-05-22T07:29:26.439Z,102529.69
2023-05-22T07:31:55.853Z,102534.69
2023-05-22T07:34:31.725Z,102563.97
2023-05-22T07:36:59.940Z,102606.09
2023-05-22T07:39:29.197Z,102642.63
2023-05-22T07:41:59.454Z,102687.09
2023-05-22T07:44:28.986Z,102683.22
2023-05-22T07:46:56.830Z,102692.91
2023-05-22T07:49:26.507Z,102709.69
2023-05-22T07:51:54.417Z,102710.78
2023-05-22T07:54:25.072Z,102713.88
2023-05-22T07:56:56.145Z,102697.09
2023-05-22T07:59:25.540Z,102651.84
2023-05-22T08:01:58.416Z,102617.72
2023-05-22T08:04:26.594Z,102599.47
2023-05-22T08:06:54.493Z,102596.09
2023-05-22T08:09:22.488Z,102596.75
2023-05-22T08:11:50.445Z,102587.25
2023-05-22T08:14:19.904Z,102594.56
2023-05-22T08:16:47.820Z,102590.50
2023-05-22T08:19:16.029Z,102597.34
2023-05-22T08:21:43.864Z,102635.72
2023-05-22T08:24:11.796Z,102675.25
2023-05-22T08:26:40.954Z,102699.34
2023-05-22T08:29:08.959Z,102749.03
2023-05-22T08:31:38.272Z,102726.19
2023-05-22T08:34:07.451Z,102708.94
2023-05-22T08:36:35.550Z,102667.44
2023-05-22T08:39:03.636Z,102626.75
2023-05-22T08:41:31.821Z,102589.19
2023-05-22T08:43:59.636Z,102560.22
2023-05-22T08:46:29.191Z,102516.38
2023-05-22T08:48:59.216Z,102480.09
2023-05-22T08:51:31.384Z,102439.44
2023-05-22T08:54:00.261Z,102410.88
2023-05-22T08:56:33.533Z,102375.50
2023-05-22T08:59:04.781Z,102340.16
2023-05-22T09:01:33.658Z,102332.97
2023-05-22T09:04:05.923Z,102307.78
2023-05-22T09:06:34.677Z,102335.09
2023-05-22T09:09:03.837Z,102343.72
2023-05-22T09:11:31.883Z,102346.59
2023-05-22T09:14:07.979Z,102303.41
2023-05-22T09:16:45.252Z,102272.59
2023-05-22T09:19:15.260Z,102273.66
2023-05-22T09:21:44.610Z,102273.88
2023-05-22T09:24:12.765Z,102245.16
2023-05-22T09:26:41.241Z,102222.19
2023-05-22T09:29:09.425Z,102212.53
2023-05-22T09:31:42.126Z,102191.34
2023-05-22T09:34:10.762Z,102153.75
2023-05-22T09:36:40.310Z,102132.13
2023-05-22T09:39:08.569Z,102085.38
2023-05-22T09:41:38.641Z,102088.22
2023-05-22T09:44:16.960Z,102095.00
2023-05-22T09:46:47.785Z,102095.31
2023-05-22T09:49:17.112Z,102070.03
2023-05-22T09:51:48.911Z,101987.94
2023-05-22T09:54:17.934Z,101928.72
2023-05-22T09:56:48.648Z,101912.00
2023-05-22T09:59:21.729Z,101857.78
2023-05-22T10:01:51.509Z,101828.28
2023-05-22T10:04:20.175Z,101805.47
2023-05-22T10:06:52.969Z,101793.81
2023-05-22T10:09:25.904Z,101760.09
2023-05-22T10:11:56.175Z,101717.34
2023-05-22T10:14:25.590Z,101707.16
2023-05-22T10:16:55.117Z,101705.19
2023-05-22T10:19:27.153Z,101669.06
2023-05-22T10:21:57.924Z,101613.16
2023-05-22T10:24:26.194Z,101593.66
2023-05-22T10:26:55.362Z,101583.19
2023-05-22T10:29:28.917Z,101585.91
2023-05-22T10:32:05.918Z,101586.88
2023-05-22T10:34:53.310Z,101505.13
2023-05-22T10:37:41.471Z,101471.09
2023-05-22T10:40:13.104Z,101411.09
2023-05-22T10:42:41.520Z,101334.91
2023-05-22T10:45:10.218Z,101310.66
2023-05-22T10:47:38.380Z,101293.50
2023-05-22T10:50:09.583Z,101271.81
2023-05-22T10:52:40.059Z,101300.41
2023-05-22T10:55:09.302Z,101299.53
2023-05-22T10:57:40.458Z,101296.97
2023-05-22T11:00:10.684Z,101286.34
2023-05-22T11:02:43.791Z,101275.56
2023-05-22T11:05:35.546Z,101226.38
2023-05-22T11:08:39.745Z,101200.59
2023-05-22T11:11:14.653Z,101162.56
2023-05-22T11:13:43.687Z,101118.31
2023-05-22T11:16:12.442Z,101092.25
2023-05-22T11:18:41.093Z,101086.63
2023-05-22T11:21:11.682Z,101055.03
2023-05-22T11:23:41.169Z,101026.81
2023-05-22T11:26:19.983Z,100998.69
2023-05-22T11:28:54.922Z,100974.00
2023-05-22T11:31:26.408Z,100964.47
2023-05-22T11:33:54.659Z,100938.28
2023-05-22T11:36:23.532Z,100928.66
2023-05-22T11:38:57.912Z,100916.00
2023-05-22T11:41:25.709Z,100863.63
2023-05-22T11:43:53.543Z,100858.63
2023-05-22T11:46:21.472Z,100874.97
2023-05-22T11:48:49.483Z,100851.41
2023-05-22T11:51:20.549Z,100830.25
2023-05-22T11:53:48.755Z,100814.59
2023-05-22T11:56:21.555Z,100830.00
2023-05-22T11:58:49.557Z,100832.16
2023-05-22T12:01:17.619Z,100797.50
2023-05-22T12:03:45.460Z,100785.06
2023-05-22T12:06:15.824Z,100790.63
2023-05-22T12:08:45.494Z,100779.00
2023-05-22T12:11:13.928Z,100768.63
2023-05-22T12:13:43.184Z,100774.69
2023-05-22T12:16:29.157Z,100770.56
2023-05-22T12:18:57.124Z,100743.16
2023-05-22T12:21:25.008Z,100704.91
2023-05-22T12:23:52.894Z,100695.34
2023-05-22T12:26:21.446Z,100663.88
2023-05-22T12:28:53.937Z,100651.88
2023-05-22T12:31:22.654Z,100655.88
2023-05-22T12:33:50.635Z,100650.22
2023-05-22T12:36:18.560Z,100644.72
2023-05-22T12:38:46.509Z,100622.44
2023-05-22T12:41:14.326Z,100627.25
2023-05-22T12:43:42.442Z,100619.94
2023-05-22T12:46:11.798Z,100598.75
2023-05-22T12:48:39.555Z,100580.72
2023-05-22T12:51:09.288Z,100583.28
2023-05-22T12:53:37.115Z,100579.34
2023-05-22T12:56:05.948Z,100568.94
2023-05-22T12:58:33.755Z,100563.56
2023-05-22T13:01:01.533Z,100560.38
2023-05-22T13:03:31.433Z,100567.59
2023-05-22T13:05:59.632Z,100558.63
2023-05-22T13:08:27.552Z,100571.41
2023-05-22T13:10:55.470Z,100570.59
2023-05-22T13:13:24.167Z,100578.31
2023-05-22T13:15:52.013Z,100582.38
2023-05-22T13:18:20.028Z,100584.91
2023-05-22T13:20:49.601Z,100587.47
2023-05-22T13:23:17.491Z,100596.16
2023-05-22T13:25:45.318Z,100602.06
2023-05-22T13:28:13.140Z,100591.38
2023-05-22T13:30:44.158Z,100583.31
2023-05-22T13:33:12.344Z,100578.97
2023-05-22T13:35:40.525Z,100595.00
2023-05-22T13:38:09.925Z,100593.84
2023-05-22T13:40:37.795Z,100601.44
2023-05-22T13:43:05.618Z,100591.78
2023-05-22T13:45:33.438Z,100604.16
2023-05-22T13:48:01.503Z,100630.22
2023-05-22T13:50:29.409Z,100652.16
2023-05-22T13:52:57.575Z,100655.19
2023-05-22T13:55:26.790Z,100664.69
2023-05-22T13:57:54.808Z,100671.22
2023-05-22T14:00:22.867Z,100656.47
2023-05-22T14:02:50.892Z,100661.56
2023-05-22T14:05:18.859Z,100655.13
2023-05-22T14:07:46.704Z,100651.31
2023-05-22T14:10:14.653Z,100646.94
2023-05-22T14:12:43.903Z,100645.16
2023-05-22T14:15:12.047Z,100654.66
2023-05-22T14:17:39.962Z,100651.47
2023-05-22T14:20:08.926Z,100659.66
2023-05-22T14:22:48.030Z,100652.25
2023-05-22T14:25:24.431Z,100647.00
2023-05-22T14:27:53.682Z,100641.50
2023-05-22T14:30:21.485Z,100642.00
2023-05-22T14:32:49.334Z,100653.59
2023-05-22T14:35:17.683Z,100639.53
2023-05-22T14:37:45.561Z,100638.56
2023-05-22T14:40:13.591Z,100655.09
2023-05-22T14:42:41.355Z,100659.47
2023-05-22T14:45:11.731Z,100644.16
2023-05-22T14:47:40.786Z,100646.38
2023-05-22T14:50:19.207Z,100638.84
2023-05-22T14:52:47.944Z,100638.25
2023-05-22T14:55:15.986Z,100646.06
2023-05-22T14:57:43.736Z,100630.13
2023-05-22T15:00:14.479Z,100641.22
2023-05-22T15:02:42.380Z,100639.88
2023-05-22T15:05:10.769Z,100630.47
2023-05-22T15:07:44.464Z,100632.91
2023-05-22T15:10:13.945Z,100636.53
2023-05-22T15:12:41.894Z,100655.56
2023-05-22T15:15:14.874Z,100660.88
2023-05-22T15:17:43.137Z,100655.94
2023-05-22T15:20:12.436Z,100647.50
2023-05-22T15:22:40.352Z,100627.41
2023-05-22T15:25:09.733Z,100626.50
2023-05-22T15:27:39.535Z,100612.41
2023-05-22T15:30:10.181Z,100624.28
2023-05-22T15:32:40.029Z,100618.09
2023-05-22T15:35:09.150Z,100631.56
2023-05-22T15:37:37.044Z,100649.31
2023-05-22T15:40:05.961Z,100650.91
2023-05-22T15:42:33.895Z,100639.53
2023-05-22T15:45:01.881Z,100659.91
2023-05-22T15:47:30.345Z,100665.31
2023-05-22T15:50:00.206Z,100676.34
2023-05-22T15:52:28.466Z,100685.22
2023-05-22T15:54:57.175Z,100682.91
2023-05-22T15:57:25.203Z,100683.13
2023-05-22T15:59:52.891Z,100681.31
2023-05-22T16:02:20.892Z,100696.97
2023-05-22T16:04:49.846Z,100713.13
2023-05-22T16:07:22.484Z,100719.31
2023-05-22T16:09:51.255Z,100732.97
2023-05-22T16:12:20.008Z,100738.47
2023-05-22T16:15:24.779Z,100741.66
2023-05-22T16:17:54.519Z,100743.59
2023-05-22T16:20:54.767Z,100746.00
2023-05-22T16:23:54.449Z,100754.75
2023-05-22T16:26:26.153Z,100745.03
2023-05-22T16:28:54.046Z,100759.25
2023-05-22T16:31:21.914Z,100766.88
2023-05-22T16:33:49.753Z,100780.97
2023-05-22T16:36:17.573Z,100770.38
2023-05-22T16:38:45.336Z,100743.28
2023-05-22T16:41:18.288Z,100740.69
2023-05-22T16:43:47.605Z,100769.72
2023-05-22T16:46:15.676Z,100766.09
2023-05-22T16:48:43.658Z,100759.91
2023-05-22T16:51:11.637Z,100706.31
2023-05-22T16:53:41.673Z,100676.94
2023-05-22T16:56:09.610Z,100639.22
2023-05-22T16:58:37.392Z,100640.22
2023-05-22T17:01:07.365Z,100626.47
2023-05-22T17:03:35.479Z,100630.03
2023-05-22T17:06:03.591Z,100644.41
2023-05-22T17:08:32.218Z,100658.03
2023-05-22T17:11:00.446Z,100659.88
2023-05-22T17:13:28.173Z,100686.88
2023-05-22T17:15:56.124Z,100692.66
2023-05-22T17:18:25.388Z,100716.34
2023-05-22T17:20:55.699Z,100717.94
2023-05-22T17:23:23.955Z,100733.41
2023-05-22T17:25:51.794Z,100750.56
2023-05-22T17:28:19.753Z,100756.09
2023-05-22T17:30:48.218Z,100764.78
2023-05-22T17:33:16.116Z,100772.44
2023-05-22T17:35:46.006Z,100785.75
2023-05-22T17:38:13.878Z,100789.03
2023-05-22T17:40:45.687Z,100809.56
2023-05-22T17:43:14.707Z,100814.94
2023-05-22T17:45:44.406Z,100825.13
2023-05-22T17:48:13.847Z,100830.09
2023-05-22T17:50:42.747Z,100853.88
2023-05-22T17:53:13.395Z,100865.72
2023-05-22T17:55:41.175Z,100883.44
2023-05-22T17:58:09.120Z,100898.19
2023-05-22T18:00:37.200Z,100909.09
2023-05-22T18:03:05.836Z,100921.59
2023-05-22T18:05:33.644Z,100927.25
2023-05-22T18:08:01.773Z,100928.56
2023-05-22T18:10:31.046Z,100943.25
2023-05-22T18:12:59.049Z,100946.22
2023-05-22T18:15:26.810Z,100953.78
2023-05-22T18:17:55.127Z,100960.22
2023-05-22T18:20:23.040Z,100965.59
2023-05-22T18:22:50.905Z,100974.94
2023-05-22T18:25:18.613Z,100977.19
2023-05-22T18:27:48.131Z,100969.13
2023-05-22T18:30:16.298Z,100979.09
2023-05-22T18:32:44.123Z,100973.16
2023-05-22T18:35:12.080Z,100983.19
2023-05-22T18:37:39.893Z,100991.75
2023-05-22T18:40:09.602Z,100988.81
2023-05-22T18:42:38.089Z,100990.34
2023-05-22T18:45:08.612Z,101000.56
2023-05-22T18:47:36.589Z,101008.56
2023-05-22T18:50:05.350Z,101008.41
2023-05-22T18:52:33.148Z,101006.53
2023-05-22T18:55:00.921Z,101024.63
2023-05-22T18:57:28.689Z,101038.91
2023-05-22T18:59:56.452Z,101047.69
2023-05-22T19:02:26.124Z,101058.03
2023-05-22T19:04:54.587Z,101079.19
2023-05-22T19:07:22.484Z,101075.22
2023-05-22T19:09:50.701Z,101072.59
2023-05-22T19:12:18.527Z,101071.50
2023-05-22T19:14:48.303Z,101073.66
2023-05-22T19:17:16.397Z,101090.94
2023-05-22T19:19:46.527Z,101092.69
2023-05-22T19:22:17.712Z,101106.94
2023-05-22T19:24:46.182Z,101117.19
2023-05-22T19:27:13.966Z,101131.88
2023-05-22T19:29:41.823Z,101141.19
2023-05-22T19:32:09.813Z,101152.19
2023-05-22T19:34:37.580Z,101160.13
2023-05-22T19:37:08.982Z,101165.59
2023-05-22T19:39:36.850Z,101174.66
2023-05-22T19:42:07.136Z,101198.84
2023-05-22T19:44:34.877Z,101197.31
2023-05-22T19:47:02.742Z,101202.59
2023-05-22T19:49:31.549Z,101232.28
2023-05-22T19:51:59.731Z,101265.84
2023-05-22T19:54:29.404Z,101292.84
2023-05-22T19:56:57.139Z,101327.78
2023-05-22T19:59:24.893Z,101357.53
2023-05-22T20:01:53.877Z,101383.59
2023-05-22T20:04:22.627Z,101422.03
2023-05-22T20:06:50.794Z,101437.56
2023-05-22T20:09:18.650Z,101450.59
2023-05-22T20:11:48.186Z,101460.34
2023-05-22T20:14:16.040Z,101451.72
2023-05-22T20:16:43.947Z,101464.91
2023-05-22T20:19:14.249Z,101475.66
2023-05-22T20:21:42.203Z,101484.97
2023-05-22T20:24:12.379Z,101502.91
2023-05-22T20:26:40.348Z,101501.06
2023-05-22T20:29:09.765Z,101506.19
2023-05-22T20:31:37.580Z,101506.59
2023-05-22T20:34:06.199Z,101508.59
2023-05-22T20:36:35.234Z,101509.78
2023-05-22T20:39:03.430Z,101517.25
2023-05-22T20:41:31.658Z,101531.34
2023-05-22T20:43:59.434Z,101546.34
2023-05-22T20:46:29.274Z,101546.59
2023-05-22T20:48:58.307Z,101543.63
2023-05-22T20:51:31.624Z,101551.28
2023-05-22T20:54:00.255Z,101564.66
2023-05-22T20:56:28.864Z,101564.66
2023-05-22T20:58:57.246Z,101573.66
2023-05-22T21:01:25.623Z,101569.69
2023-05-22T21:03:56.394Z,101572.78
2023-05-22T21:06:24.905Z,101579.63
2023-05-22T21:08:54.286Z,101572.69
2023-05-22T21:11:22.239Z,101577.03
2023-05-22T21:13:50.393Z,101577.16
2023-05-22T21:16:18.221Z,101591.44
2023-05-22T21:18:46.169Z,101589.44
2023-05-22T21:21:16.903Z,101590.69
2023-05-22T21:23:44.851Z,101603.75
2023-05-22T21:26:12.818Z,101607.97
2023-05-22T21:28:40.887Z,101614.28
2023-05-22T21:31:08.646Z,101634.75
2023-05-22T21:33:36.484Z,101640.13
2023-05-22T21:36:07.819Z,101649.06
2023-05-22T21:38:37.011Z,101645.94
2023-05-22T21:41:05.072Z,101651.03
2023-05-22T21:43:32.830Z,101659.59
2023-05-22T21:46:00.703Z,101662.69
2023-05-22T21:48:28.448Z,101646.56
2023-05-22T21:50:56.373Z,101655.25
2023-05-22T21:53:24.227Z,101653.56
2023-05-22T21:55:53.827Z,101652.75
2023-05-22T21:58:21.821Z,101668.16
2023-05-22T22:00:51.172Z,101663.44
2023-05-22T22:03:19.205Z,101676.97
2023-05-22T22:05:47.289Z,101675.78
2023-05-22T22:08:15.040Z,101681.19
2023-05-22T22:10:42.905Z,101690.53
2023-05-22T22:13:12.163Z,101698.75
2023-05-22T22:15:39.965Z,101697.41
2023-05-22T22:18:08.424Z,101708.16
2023-05-22T22:20:44.050Z,101706.41
2023-05-22T22:23:13.034Z,101707.97
2023-05-22T22:25:40.834Z,101721.75
2023-05-22T22:28:08.634Z,101721.31
2023-05-22T22:30:38.045Z,101726.25
2023-05-22T22:33:06.387Z,101724.94
2023-05-22T22:35:34.220Z,101721.94
2023-05-22T22:38:02.117Z,101733.53
2023-05-22T22:40:29.936Z,101743.47
2023-05-22T22:42:57.649Z,101744.03
2023-05-22T22:45:25.756Z,101740.50
2023-05-22T22:47:56.445Z,101753.09
2023-05-22T22:50:25.347Z,101759.72
2023-05-22T22:52:53.363Z,101758.88
2023-05-22T22:55:21.307Z,101753.81
2023-05-22T22:57:50.106Z,101760.91
2023-05-22T23:00:20.097Z,101758.06
2023-05-22T23:02:48.024Z,101760.78
2023-05-22T23:05:20.530Z,101759.78
2023-05-22T23:07:48.682Z,101765.94
2023-05-22T23:10:16.901Z,101759.50
2023-05-22T23:12:44.668Z,101738.88
2023-05-22T23:15:16.263Z,101728.44
2023-05-22T23:17:44.217Z,101718.63
2023-05-22T23:20:12.729Z,101707.44
2023-05-22T23:22:41.903Z,101706.66
2023-05-22T23:25:10.546Z,101698.94
2023-05-22T23:27:39.187Z,101687.47
2023-05-22T23:30:08.419Z,101688.03
2023-05-22T23:32:36.576Z,101685.94
2023-05-22T23:35:05.612Z,101673.44
2023-05-22T23:37:33.619Z,101661.34
2023-05-22T23:40:02.819Z,101667.09
2023-05-22T23:42:30.737Z,101667.84
2023-05-22T23:44:58.533Z,101665.91
2023-05-22T23:47:26.730Z,101664.63
2023-05-22T23:49:56.491Z,101652.13
2023-05-22T23:52:24.579Z,101650.22
2023-05-22T23:54:52.320Z,101649.47
2023-05-22T23:57:21.477Z,101647.19
2023-05-22T23:59:49.172Z,101651.53
